Flight Track Log - Related Links

Times and Time Zones

All times are in EDT time to prevent confusion due to time zone crossing. See the SWA2353 flight status page for this flight to view local times or setup timezone preferences in your user account.

Time Position Orientation Groundspeed Altitude Reporting Facility
EDT Latitude Longitude Course Direction KTS MPH feet Rate Location/Type
Thu 11:07:49 PM 38.7919 -90.3872 339° North 267 307 3,700  Level Kansas City Center
Thu 11:08:51 PM 38.8372 -90.3558 28° Northeast 228 262 6,800 2,829 Climbing Kansas City Center
Thu 11:09:52 PM 38.8314 -90.2700 95° East 243 280 9,500 3,295 Climbing Kansas City Center
Thu 11:10:53 PM 38.8267 -90.1708 93° East 270 311 13,500 3,443 Climbing Kansas City Center
Thu 11:11:54 PM 38.8206 -90.0503 94° East 322 371 16,500 3,049 Climbing Kansas City Center
Thu 11:12:55 PM 38.8139 -89.9236 94° East 355 409 19,700 3,197 Climbing Kansas City Center
Thu 11:13:56 PM 38.8067 -89.7856 94° East 379 436 23,000 3,443 Climbing Kansas City Center
Thu 11:14:57 PM 38.7981 -89.6200 94° East 393 452 26,700 2,623 Climbing Kansas City Center
Thu 11:16:59 PM 38.8231 -89.3172 84° East 442 509 31,000 2,000 Climbing Kansas City Center
Thu 11:18:00 PM 38.8547 -89.1428 77° East 463 533 32,800 1,967 Climbing Kansas City Center
Thu 11:19:01 PM 38.8844 -88.9747 77° East 480 552 35,000 2,557 Climbing Kansas City Center
Thu 11:20:02 PM 38.9147 -88.8247 75° East 475 547 38,000 2,705 Climbing Kansas City Center
Thu 11:21:03 PM 38.9400 -88.6739 78° East 444 511 40,500 1,475 Climbing Kansas City Center
Thu 11:22:04 PM 38.9700 -88.5044 77° East 433 498 41,000 246 Climbing Kansas City Center
Thu 11:23:05 PM 38.9964 -88.3444 78° East 448 516 41,000  Level Kansas City Center
Thu 11:24:02 PM 39.0153 -88.2206 79° East 451 519 41,000  Level Indianapolis Center
Thu 11:25:03 PM 39.0422 -88.0603 78° East 455 524 41,000  Level Indianapolis Center
Thu 11:26:04 PM 39.0694 -87.9011 78° East 453 521 41,000  Level Indianapolis Center
Thu 11:27:06 PM 39.0953 -87.7428 78° East 451 519 41,000  Level Indianapolis Center
Thu 11:28:07 PM 39.1219 -87.5819 78° East 446 513 41,000  Level Indianapolis Center
Thu 11:29:08 PM 39.1511 -87.3972 78° East 442 509 41,000  Level Indianapolis Center
Thu 11:30:09 PM 39.1764 -87.2444 78° East 440 506 41,000  Level Indianapolis Center
Thu 11:31:10 PM 39.2006 -87.0911 78° East 439 505 41,000  Level Indianapolis Center
Thu 11:32:11 PM 39.2242 -86.9369 79° East 440 506 41,000  Level Indianapolis Center
Thu 11:33:12 PM 39.2492 -86.7836 78° East 441 507 41,000  Level Indianapolis Center
Thu 11:34:13 PM 39.2731 -86.6281 79° East 445 512 41,000  Level Indianapolis Center
Thu 11:35:14 PM 39.2975 -86.4747 78° East 442 509 41,000  Level Indianapolis Center
Thu 11:36:15 PM 39.3200 -86.3186 79° East 446 513 41,000  Level Indianapolis Center
Thu 11:37:16 PM 39.3478 -86.1303 79° East 453 521 41,000  Level Indianapolis Center
Thu 11:38:17 PM 39.3717 -85.9756 79° East 447 514 41,000  Level Indianapolis Center
Thu 11:39:18 PM 39.3953 -85.8183 79° East 449 517 41,000  Level Indianapolis Center
Thu 11:40:19 PM 39.4175 -85.6594 80° East 454 522 41,000  Level Indianapolis Center
Thu 11:41:20 PM 39.4414 -85.5000 79° East 455 524 41,000  Level Indianapolis Center
Thu 11:42:21 PM 39.4639 -85.3383 80° East 458 527 41,000  Level Indianapolis Center
Thu 11:43:22 PM 39.4867 -85.1781 80° East 457 526 41,000  Level Indianapolis Center
Thu 11:44:23 PM 39.4958 -85.0172 86° East 452 520 41,000 -443 Level Indianapolis Center
Thu 11:45:24 PM 39.5039 -84.8547 86° East 447 514 40,100 -836 Descending Indianapolis Center
Thu 11:46:25 PM 39.5111 -84.6958 87° East 439 505 39,300 -541 Descending Indianapolis Center
Thu 11:47:26 PM 39.5206 -84.5386 85° East 437 503 39,000 -149 Descending Indianapolis Center
Thu 11:48:26 PM 39.5267 -84.3819 87° East 434 499 39,000  Level Indianapolis Center
Thu 11:49:27 PM 39.5361 -84.1981 86° East 438 504 39,000  Level Indianapolis Center
Thu 11:50:28 PM 39.5436 -84.0408 86° East 435 501 39,000  Level Indianapolis Center
Thu 11:51:29 PM 39.5508 -83.8842 87° East 434 499 39,000  Level Indianapolis Center
Thu 11:52:30 PM 39.5569 -83.7258 87° East 438 504 39,000  Level Indianapolis Center
Thu 11:53:31 PM 39.5636 -83.5675 87° East 440 506 39,000  Level Indianapolis Center
Thu 11:54:32 PM 39.5703 -83.4106 87° East 438 504 39,000  Level Indianapolis Center
Thu 11:55:32 PM 39.5761 -83.2528 87° East 439 505 39,000  Level Indianapolis Center
Thu 11:56:33 PM 39.5817 -83.0964 87° East 435 501 39,000  Level Indianapolis Center
Thu 11:57:34 PM 39.5881 -82.9400 87° East 433 498 39,000  Level Indianapolis Center
Thu 11:58:35 PM 39.5942 -82.7833 87° East 433 498 39,000  Level Indianapolis Center
Thu 11:59:36 PM 39.5983 -82.6261 88° East 433 498 39,000  Level Indianapolis Center
Fri 12:00:37 AM 39.6039 -82.4692 87° East 434 499 39,000  Level Indianapolis Center
Fri 12:01:38 AM 39.6081 -82.3108 88° East 436 502 39,000  Level Indianapolis Center
Fri 12:02:38 AM 39.6136 -82.1528 87° East 435 501 39,000  Level Indianapolis Center
Fri 12:03:39 AM 39.6181 -81.9794 88° East 435 501 39,000  Level Indianapolis Center
Fri 12:04:40 AM 39.6217 -81.8222 88° East 435 501 39,000  Level Indianapolis Center
Fri 12:05:41 AM 39.6261 -81.6653 88° East 435 501 39,000  Level Indianapolis Center
Fri 12:06:42 AM 39.6297 -81.5078 88° East 436 502 39,000  Level Indianapolis Center
Fri 12:06:59 AM 39.6342 -81.4725 81° East 438 504 39,000  Level Cleveland Center
Fri 12:07:59 AM 39.6353 -81.3161 89° East 433 498 39,000  Level Cleveland Center
Fri 12:08:59 AM 39.6281 -81.1625 93° East 428 493 39,000  Level Cleveland Center
Fri 12:09:44 AM 39.6164 -81.0408 97° East 429 494 39,000 -396 Level Indianapolis Center
Fri 12:10:45 AM 39.6081 -80.8847 94° East 431 496 38,300 -787 Descending Indianapolis Center
Fri 12:11:46 AM 39.5986 -80.7264 94° East 438 504 37,400 -639 Descending Indianapolis Center
Fri 12:12:47 AM 39.5881 -80.5706 95° East 434 499 37,000 -253 Descending Indianapolis Center
Fri 12:13:21 AM 39.5878 -80.4711 90° East 446 513 37,000  Level Washington Center
Fri 12:14:22 AM 39.5753 -80.3142 96° East 441 507 37,000  Level Washington Center
Fri 12:15:21 AM 39.5667 -80.1600 94° East 441 507 37,000  Level Washington Center
Fri 12:16:21 AM 39.5553 -80.0194 96° East 441 507 37,000  Level Washington Center
Fri 12:17:21 AM 39.5442 -79.8625 95° East 441 507 37,000  Level Washington Center
Fri 12:18:24 AM 39.5350 -79.7058 94° East 441 507 37,000  Level Washington Center
Fri 12:19:23 AM 39.5217 -79.5464 96° East 441 507 37,000  Level Washington Center
Fri 12:20:23 AM 39.5122 -79.3872 94° East 441 507 37,000 -153 Level Washington Center
Fri 12:21:21 AM 39.4967 -79.2114 96° East 447 514 36,700 -1,576 Descending Washington Center
Fri 12:22:21 AM 39.4847 -79.0522 96° East 442 509 33,900 -2,600 Descending Washington Center
Fri 12:23:21 AM 39.4725 -78.8958 96° East 442 509 31,500 -2,341 Descending Washington Center
Fri 12:24:24 AM 39.4600 -78.7447 96° East 437 503 29,100 -2,281 Descending Washington Center
Fri 12:25:22 AM 39.4469 -78.5989 97° East 425 489 26,900 -2,237 Descending Washington Center
Fri 12:26:22 AM 39.4378 -78.4589 95° East 407 468 24,700 -2,168 Descending Washington Center
Fri 12:27:21 AM 39.4244 -78.3186 97° East 395 455 22,600 -2,050 Descending Washington Center
Fri 12:28:22 AM 39.4147 -78.1892 96° East 382 440 20,600 -1,983 Descending Washington Center
Fri 12:29:22 AM 39.4028 -78.0625 97° East 365 420 18,600 -2,000 Descending Washington Center
Fri 12:30:22 AM 39.3928 -77.9386 96° East 359 413 16,600 -1,815 Descending Washington Center
Fri 12:31:21 AM 39.3889 -77.8178 92° East 351 404 15,000 -992 Descending Washington Center
Fri 12:32:23 AM 39.3906 -77.7292 89° East 331 381 14,600 -900 Descending Washington Center
Fri 12:33:21 AM 39.3800 -77.6186 97° East 301 346 13,200 -1,416 Descending Washington Center
Fri 12:33:52 AM 39.3667 -77.5667 108° East 279 321 12,500 -1,385 Descending Potomac TRACON
Fri 12:34:52 AM 39.3667 -77.4500 90° East 275 316 11,100 -1,636 Descending Potomac TRACON
Fri 12:35:53 AM 39.3500 -77.3667 104° East 275 316 9,200 -1,701 Descending Potomac TRACON
Fri 12:36:59 AM 39.3333 -77.2500 100° East 267 307 7,500 -1,429 Descending Potomac TRACON
Fri 12:37:59 AM 39.3333 -77.1667 90° East 253 291 6,200 -1,350 Descending Potomac TRACON
Fri 12:38:59 AM 39.3167 -77.0833 104° East 252 290 4,800 -1,370 Descending Potomac TRACON
Fri 12:40:06 AM 39.3167 -76.9833 90° East 238 274 3,300 -993 Descending Potomac TRACON
Fri 12:41:18 AM 39.3000 -76.8833 102° East 214 246 2,500 -364 Descending Potomac TRACON
Fri 12:42:18 AM 39.2833 -76.8167 108° East 213 245 2,500  Level Potomac TRACON
Fri 12:43:13 AM 39.2667 -76.7500 108° East 211 243 2,500 -574 Level Potomac TRACON
Fri 12:44:13 AM 39.2333 -76.7167 142° Southeast 148 170 1,400 -900 Descending Potomac TRACON
Fri 12:45:13 AM 39.2000 -76.7000 159° South 123 142 700 -700 Descending Potomac TRACON
Fri 12:47:00 AM 39.1754 -76.6683 142° Southeast  Level Estimated
Fri 12:54:00 AM 39.1754 -76.6683 142° Southeast  Level Estimated
Fri 12:55:00 AM 39.1754 -76.6683 142° Southeast  Level Estimated
Fri 12:56:00 AM 39.1754 -76.6683 142° Southeast  Level Estimated
Fri 12:57:00 AM 39.1754 -76.6683 142° Southeast  Level Estimated
Fri 12:58:00 AM 39.1754 -76.6683 142° Southeast  Level Estimated
Fri 12:59:00 AM 39.1754 -76.6683 142° Southeast  Level Estimated

Login

Don't have an account? Register now (free) for customized features, flight alerts, and more!